Time;durP1;ratioP1;P1;durP2;ratioP2;P2;SDS_P1;SDS_P2;PMS_P1;PMS_P2;Temp;Humidity;BMP_temperature;BMP_pressure;BME280_temperature;BME280_humidity;BME280_pressure;Samples;Min_cycle;Max_cycle;Signal;HPM_P1;HPM_P2
2020/12/18 00:01:24;;;;;;;;;11.75;9.75;;;;;13.45;52.31;99308.84;4801397;29;102605;-80
2020/12/18 00:03:52;;;;;;;;;13.25;11.25;;;;;13.44;52.56;99298.16;4787528;29;103356;-80
2020/12/18 00:06:19;;;;;;;;;14.25;10.00;;;;;13.42;53.03;99316.56;4791184;28;102572;-80
2020/12/18 00:08:47;;;;;;;;;10.25;8.50;;;;;13.42;52.83;99313.84;4785856;28;103770;-80
2020/12/18 00:11:24;;;;;;;;;8.25;7.75;;;;;13.39;52.59;99313.19;4791769;28;102571;-81
2020/12/18 00:13:51;;;;;;;;;12.25;12.25;;;;;13.37;53.06;99309.84;4788099;28;102722;-80
2020/12/18 00:16:18;;;;;;;;;12.50;11.00;;;;;13.36;52.37;99305.47;4787807;29;102747;-79
2020/12/18 00:18:45;;;;;;;;;15.25;12.50;;;;;13.36;52.77;99310.06;4788645;29;104035;-79
2020/12/18 00:21:19;;;;;;;;;9.75;9.75;;;;;13.35;53.29;99319.25;4791579;28;102411;-79
2020/12/18 00:23:46;;;;;;;;;9.75;8.50;;;;;13.33;53.07;99324.84;4791883;28;102438;-79
2020/12/18 00:26:13;;;;;;;;;10.75;9.25;;;;;13.32;52.29;99323.22;4788813;29;103347;-79
2020/12/18 00:28:40;;;;;;;;;7.50;7.25;;;;;13.31;53.27;99326.94;4793707;29;104209;-79
2020/12/18 00:31:06;;;;;;;;;12.00;9.00;;;;;13.29;53.06;99317.31;4787081;29;102612;-79
2020/12/18 00:33:33;;;;;;;;;13.00;12.25;;;;;13.28;53.31;99324.63;4788491;29;104656;-79
2020/12/18 00:36:00;;;;;;;;;10.00;9.25;;;;;13.28;52.36;99326.53;4791479;29;103089;-79
2020/12/18 00:38:27;;;;;;;;;6.50;6.00;;;;;13.27;52.52;99336.53;4785519;28;104358;-79
2020/12/18 00:40:53;;;;;;;;;9.50;8.50;;;;;13.25;52.49;99325.03;4788816;29;102446;-79
2020/12/18 00:43:20;;;;;;;;;11.50;10.25;;;;;13.25;53.38;99332.34;4792695;29;102340;-79
2020/12/18 00:45:47;;;;;;;;;11.25;10.25;;;;;13.25;52.90;99324.19;4786751;29;102489;-79
2020/12/18 00:48:14;;;;;;;;;11.25;9.75;;;;;13.24;53.22;99322.50;4778822;28;104358;-79
2020/12/18 00:50:41;;;;;;;;;7.00;7.00;;;;;13.21;53.45;99321.03;4789277;28;104798;-79
2020/12/18 00:53:08;;;;;;;;;8.75;8.00;;;;;13.21;53.15;99326.47;4789278;29;102643;-79
2020/12/18 00:55:35;;;;;;;;;8.75;8.00;;;;;13.19;53.36;99328.53;4787494;29;102171;-79
2020/12/18 00:58:02;;;;;;;;;12.50;8.50;;;;;13.20;52.98;99327.50;4782390;28;104293;-79
2020/12/18 01:00:29;;;;;;;;;7.75;7.00;;;;;13.20;52.58;99327.50;4788639;29;103868;-79
2020/12/18 01:02:55;;;;;;;;;7.50;7.00;;;;;13.19;52.32;99333.97;4782924;28;102792;-79
2020/12/18 01:05:22;;;;;;;;;9.50;7.00;;;;;13.17;52.62;99321.63;4799732;29;102684;-79
2020/12/18 01:07:49;;;;;;;;;10.00;8.25;;;;;13.15;52.65;99316.41;4795539;29;109811;-79
2020/12/18 01:10:15;;;;;;;;;8.25;8.25;;;;;13.15;52.71;99316.41;4793906;28;102542;-79
2020/12/18 01:12:42;;;;;;;;;8.50;8.00;;;;;13.14;52.63;99330.19;4792802;28;103107;-79
2020/12/18 01:15:09;;;;;;;;;6.75;5.25;;;;;13.14;52.81;99330.19;4799631;28;103731;-80
2020/12/18 01:17:36;;;;;;;;;9.00;7.00;;;;;13.13;53.33;99329.34;4791599;29;104401;-80
2020/12/18 01:20:03;;;;;;;;;6.00;6.00;;;;;13.12;52.65;99332.25;4794260;29;102170;-80
2020/12/18 01:22:29;;;;;;;;;8.00;7.00;;;;;13.12;53.41;99329.53;4798691;28;103813;-80
2020/12/18 01:24:56;;;;;;;;;7.00;7.00;;;;;13.10;52.54;99332.44;4796419;28;104649;-80
2020/12/18 01:27:23;;;;;;;;;9.25;8.00;;;;;13.08;53.24;99328.22;4791671;28;104061;-80
2020/12/18 01:29:49;;;;;;;;;8.00;7.25;;;;;13.08;52.57;99336.38;4799057;28;102457;-81
2020/12/18 01:32:16;;;;;;;;;11.00;8.25;;;;;13.06;52.62;99339.28;4795443;28;102423;-80
2020/12/18 01:34:44;;;;;;;;;11.50;7.75;;;;;13.07;52.53;99340.97;4793909;28;102240;-80
2020/12/18 01:37:11;;;;;;;;;8.50;8.00;;;;;13.06;52.71;99338.47;4795253;29;104250;-80
2020/12/18 01:39:38;;;;;;;;;5.50;5.25;;;;;13.05;53.19;99334.06;4798665;28;102652;-80
2020/12/18 01:42:05;;;;;;;;;7.00;6.00;;;;;13.05;53.21;99342.22;4793778;28;102546;-80
2020/12/18 01:44:31;;;;;;;;;6.75;6.25;;;;;13.04;52.83;99338.66;4792285;28;102476;-80
2020/12/18 01:46:59;;;;;;;;;8.00;7.00;;;;;13.03;53.30;99339.69;4811163;28;105248;-80
2020/12/18 01:49:25;;;;;;;;;7.50;7.00;;;;;13.01;52.92;99330.94;4793033;28;102389;-80
2020/12/18 01:51:53;;;;;;;;;10.00;7.75;;;;;12.99;53.46;99338.41;4811685;28;102594;-80
2020/12/18 01:54:20;;;;;;;;;5.50;5.25;;;;;12.99;53.43;99343.84;4798432;29;103826;-80
2020/12/18 01:56:47;;;;;;;;;10.75;8.00;;;;;12.99;53.38;99346.56;4792975;28;104508;-80
2020/12/18 01:59:14;;;;;;;;;6.25;5.25;;;;;13.00;53.43;99336.53;4791639;28;104101;-80
2020/12/18 02:01:41;;;;;;;;;8.75;8.50;;;;;12.97;53.32;99340.47;4789316;28;104610;-80
2020/12/18 02:04:08;;;;;;;;;8.50;8.00;;;;;12.98;52.63;99342.16;4783466;29;102451;-80
2020/12/18 02:06:35;;;;;;;;;10.00;7.50;;;;;12.96;52.79;99338.81;4770933;28;104926;-80
2020/12/18 02:09:02;;;;;;;;;7.50;6.75;;;;;12.95;52.63;99340.69;4784580;29;104117;-80
2020/12/18 02:11:31;;;;;;;;;6.75;5.00;;;;;12.96;52.73;99338.81;4799673;28;103007;-80
2020/12/18 02:14:01;;;;;;;;;8.25;7.75;;;;;12.94;52.43;99347.16;4792341;29;102788;-80
2020/12/18 02:16:32;;;;;;;;;9.00;7.00;;;;;12.94;52.71;99335.44;4784883;29;103271;-80
2020/12/18 02:19:00;;;;;;;;;4.50;3.75;;;;;12.92;52.69;99340.25;4793774;29;102880;-80
2020/12/18 02:21:29;;;;;;;;;6.25;6.00;;;;;12.92;53.08;99341.06;4803341;28;102152;-80
2020/12/18 02:23:58;;;;;;;;;6.75;6.25;;;;;12.92;53.33;99346.50;4787216;28;103790;-80
2020/12/18 02:26:28;;;;;;;;;7.00;6.00;;;;;12.92;53.20;99353.84;4791136;28;103592;-80
2020/12/18 02:28:57;;;;;;;;;7.00;6.00;;;;;12.90;53.35;99336.88;4792229;28;102425;-80
2020/12/18 02:31:25;;;;;;;;;5.25;5.25;;;;;12.89;53.34;99340.63;4787594;29;103289;-80
2020/12/18 02:33:53;;;;;;;;;8.75;7.00;;;;;12.89;53.38;99344.19;4793075;28;102557;-80
2020/12/18 02:36:26;;;;;;;;;8.50;7.00;;;;;12.88;53.29;99347.09;4793334;29;107774;-80
2020/12/18 02:39:00;;;;;;;;;6.50;6.00;;;;;12.87;53.10;99351.72;4783809;28;102242;-80
2020/12/18 02:41:30;;;;;;;;;7.00;6.00;;;;;12.87;52.52;99343.56;4786669;28;103772;-80
2020/12/18 02:44:00;;;;;;;;;7.25;6.00;;;;;12.87;52.70;99354.44;4791463;28;103949;-80
2020/12/18 02:46:30;;;;;;;;;4.00;3.25;;;;;12.86;52.46;99351.91;4786869;28;105059;-80
2020/12/18 02:48:58;;;;;;;;;6.75;5.50;;;;;12.85;53.10;99347.50;4787410;28;103145;-80
2020/12/18 02:51:24;;;;;;;;;5.50;5.00;;;;;12.83;53.18;99347.69;4789587;29;102871;-80
2020/12/18 02:53:51;;;;;;;;;6.50;5.50;;;;;12.83;53.44;99338.72;4797042;29;103163;-80
2020/12/18 02:56:24;;;;;;;;;4.50;4.50;;;;;12.82;53.40;99337.88;4789507;29;104088;-80
2020/12/18 02:58:51;;;;;;;;;6.75;5.75;;;;;12.81;53.00;99338.06;4790466;29;102520;-80
2020/12/18 03:01:19;;;;;;;;;5.00;4.00;;;;;12.81;53.51;99324.50;4791476;29;102074;-80
2020/12/18 03:03:46;;;;;;;;;6.00;5.00;;;;;12.81;52.81;99335.34;4801013;28;103117;-80
2020/12/18 03:06:12;;;;;;;;;7.75;6.00;;;;;12.81;53.46;99340.78;4787658;28;104079;-80
2020/12/18 03:08:39;;;;;;;;;5.50;4.00;;;;;12.80;53.33;99348.09;4789885;29;103899;-80
2020/12/18 03:11:06;;;;;;;;;5.00;4.75;;;;;12.80;52.71;99344.53;4786995;29;102608;-80
2020/12/18 03:13:33;;;;;;;;;5.00;4.50;;;;;12.79;52.92;99349.13;4800534;29;104869;-80
2020/12/18 03:16:00;;;;;;;;;5.75;5.75;;;;;12.78;53.10;99344.75;4790648;28;104125;-80
2020/12/18 03:18:26;;;;;;;;;6.50;5.00;;;;;12.78;52.87;99349.34;4792220;28;102145;-80
2020/12/18 03:20:53;;;;;;;;;6.50;4.50;;;;;12.77;53.37;99344.94;4786474;29;102736;-80
2020/12/18 03:23:20;;;;;;;;;7.25;5.50;;;;;12.76;52.98;99344.09;4789193;28;102373;-80
2020/12/18 03:25:46;;;;;;;;;5.00;4.75;;;;;12.76;53.25;99348.69;4788546;29;104102;-80
2020/12/18 03:28:13;;;;;;;;;4.25;4.00;;;;;12.75;53.07;99339.69;4789215;29;102574;-80
2020/12/18 03:30:40;;;;;;;;;6.25;5.00;;;;;12.74;53.08;99351.56;4784933;29;105741;-80
2020/12/18 03:33:06;;;;;;;;;6.00;6.00;;;;;12.74;53.36;99348.06;4791856;29;104024;-80
2020/12/18 03:35:33;;;;;;;;;7.00;6.50;;;;;12.75;52.76;99355.13;4787938;29;104046;-80
2020/12/18 03:38:00;;;;;;;;;5.75;4.75;;;;;12.73;53.13;99366.22;4781432;29;102326;-80
2020/12/18 03:40:26;;;;;;;;;5.00;4.00;;;;;12.73;53.37;99359.94;4787936;29;102669;-80
2020/12/18 03:42:53;;;;;;;;;5.75;4.00;;;;;12.73;52.45;99366.22;4789068;29;102716;-80
2020/12/18 03:45:20;;;;;;;;;4.00;4.00;;;;;12.71;52.84;99362.84;4786614;28;108042;-80
2020/12/18 03:47:47;;;;;;;;;5.00;4.00;;;;;12.70;52.98;99366.56;4787154;29;102271;-80
2020/12/18 03:50:13;;;;;;;;;5.25;4.00;;;;;12.70;53.31;99363.88;4787336;29;102540;-80
2020/12/18 03:52:59;;;;;;;;;4.25;3.75;;;;;12.69;53.34;99367.63;4778930;28;103882;-80
2020/12/18 03:55:26;;;;;;;;;4.75;4.00;;;;;12.70;52.94;99376.63;4788175;29;104491;-80
2020/12/18 03:57:52;;;;;;;;;7.00;5.00;;;;;12.68;52.77;99371.38;4795321;29;102343;-80
2020/12/18 04:00:19;;;;;;;;;4.75;4.00;;;;;12.68;52.68;99378.69;4780273;28;102525;-80
2020/12/18 04:02:46;;;;;;;;;5.75;4.75;;;;;12.66;52.83;99386.16;4777833;29;105641;-80
2020/12/18 04:05:12;;;;;;;;;5.00;4.00;;;;;12.66;52.78;99378.84;4788173;29;104299;-80
2020/12/18 04:07:40;;;;;;;;;5.00;4.50;;;;;12.66;52.68;99381.56;4787488;28;103791;-80
2020/12/18 04:10:06;;;;;;;;;6.00;5.00;;;;;12.66;53.34;99383.44;4783853;29;103652;-80
2020/12/18 04:12:33;;;;;;;;;6.00;5.00;;;;;12.65;53.19;99379.06;4784462;29;104901;-80
2020/12/18 04:15:00;;;;;;;;;4.25;4.25;;;;;12.65;52.55;99379.06;4790031;29;104419;-80
2020/12/18 04:17:26;;;;;;;;;4.50;4.50;;;;;12.64;52.93;99380.09;4780028;29;104341;-80
2020/12/18 04:19:53;;;;;;;;;8.00;6.00;;;;;12.62;53.45;99376.72;4782643;29;102756;-80
2020/12/18 04:22:20;;;;;;;;;5.50;4.50;;;;;12.63;53.35;99381.97;4793559;29;102436;-80
2020/12/18 04:24:46;;;;;;;;;4.25;4.25;;;;;12.62;53.52;99380.28;4776778;29;104612;-80
2020/12/18 04:27:13;;;;;;;;;5.75;4.00;;;;;12.63;53.14;99384.69;4782265;29;104448;-80
2020/12/18 04:29:40;;;;;;;;;5.50;4.00;;;;;12.62;52.97;99388.44;4766804;28;102128;-80
2020/12/18 04:32:07;;;;;;;;;5.25;4.75;;;;;12.62;53.35;99391.13;4773597;29;104857;-80
2020/12/18 04:34:34;;;;;;;;;5.25;5.25;;;;;12.61;53.51;99392.16;4758090;29;105967;-80
2020/12/18 04:37:00;;;;;;;;;5.00;5.00;;;;;12.60;53.13;99393.22;4778697;29;102572;-80
2020/12/18 04:39:27;;;;;;;;;3.00;2.50;;;;;12.61;52.85;99394.06;4785128;29;102737;-80
2020/12/18 04:41:54;;;;;;;;;4.25;4.00;;;;;12.60;52.95;99398.66;4786447;28;103706;-80
2020/12/18 04:44:20;;;;;;;;;5.00;4.00;;;;;12.58;53.29;99394.44;4787263;29;104171;-81
2020/12/18 04:46:49;;;;;;;;;4.00;4.00;;;;;12.58;52.61;99394.44;4772467;29;104121;-80
2020/12/18 04:49:16;;;;;;;;;3.25;3.25;;;;;12.59;52.76;99393.41;4779243;28;102585;-80
2020/12/18 04:51:44;;;;;;;;;5.00;4.75;;;;;12.58;52.95;99398.00;4784736;29;102550;-80
2020/12/18 04:54:11;;;;;;;;;3.25;3.00;;;;;12.59;52.55;99404.25;4791834;29;104075;-80
2020/12/18 04:56:40;;;;;;;;;5.00;4.00;;;;;12.59;52.62;99390.69;4775711;28;103823;-80
2020/12/18 04:59:07;;;;;;;;;3.00;3.00;;;;;12.56;52.70;99391.09;4770254;29;103176;-80
2020/12/18 05:01:34;;;;;;;;;5.00;4.50;;;;;12.57;53.24;99392.75;4791725;29;103071;-80
2020/12/18 05:04:01;;;;;;;;;4.00;3.75;;;;;12.55;52.68;99384.81;4779690;28;103098;-80
2020/12/18 05:06:28;;;;;;;;;3.00;3.00;;;;;12.55;53.44;99392.13;4790314;29;102293;-80
2020/12/18 05:08:55;;;;;;;;;4.00;4.00;;;;;12.55;53.23;99394.84;4795521;28;102317;-81
2020/12/18 05:11:26;;;;;;;;;5.25;4.50;;;;;12.53;52.72;99398.56;4791805;29;102209;-80
2020/12/18 05:13:54;;;;;;;;;5.00;4.00;;;;;12.51;53.35;99392.53;4785927;29;108899;-81
2020/12/18 05:16:22;;;;;;;;;4.50;4.50;;;;;12.54;53.13;99412.97;4790063;29;103038;-80
2020/12/18 05:18:52;;;;;;;;;4.00;4.00;;;;;12.53;53.14;99404.00;4806977;28;102577;-81
2020/12/18 05:21:18;;;;;;;;;5.00;4.50;;;;;12.58;52.92;99410.72;4787551;29;102214;-78
2020/12/18 05:23:58;;;;;;;;;3.75;3.00;;;;;12.60;53.84;99419.50;4782728;29;108931;-79
2020/12/18 05:26:29;;;;;;;;;3.50;3.50;;;;;12.62;53.55;99425.56;4806860;28;102241;-80
2020/12/18 05:29:04;;;;;;;;;5.00;4.00;;;;;12.61;53.88;99413.06;4790858;28;103523;-78
2020/12/18 05:31:31;;;;;;;;;3.00;3.00;;;;;12.62;53.69;99425.56;4789087;29;103742;-78
2020/12/18 05:34:03;;;;;;;;;4.00;3.75;;;;;12.60;52.87;99419.50;4792662;28;104175;-77
2020/12/18 05:36:30;;;;;;;;;5.50;4.00;;;;;12.59;53.80;99426.81;4794678;29;102308;-78
2020/12/18 05:38:57;;;;;;;;;5.00;4.00;;;;;12.56;53.89;99418.22;4795604;28;102776;-78
2020/12/18 05:41:25;;;;;;;;;4.25;3.75;;;;;12.55;53.48;99416.53;4794639;28;102505;-78
2020/12/18 05:43:51;;;;;;;;;3.00;2.75;;;;;12.53;53.01;99417.56;4795648;28;104066;-78
2020/12/18 05:46:23;;;;;;;;;3.00;3.00;;;;;12.52;52.81;99418.59;4790497;28;102460;-78
2020/12/18 05:49:04;;;;;;;;;4.00;4.00;;;;;12.54;53.05;99426.53;4789359;28;102136;-78
2020/12/18 05:51:38;;;;;;;;;5.00;3.25;;;;;12.52;53.49;99429.44;4787373;28;102251;-78
2020/12/18 05:54:17;;;;;;;;;3.00;3.00;;;;;12.53;52.96;99433.00;4805059;28;104241;-78
2020/12/18 05:56:45;;;;;;;;;4.00;3.50;;;;;12.51;53.00;99427.78;4789816;28;102521;-78
2020/12/18 05:59:16;;;;;;;;;4.00;4.00;;;;;12.50;53.53;99431.53;4786875;29;105472;-78
2020/12/18 06:01:44;;;;;;;;;5.00;5.00;;;;;12.51;53.03;99432.38;4796402;28;102636;-78
2020/12/18 06:04:12;;;;;;;;;2.50;2.50;;;;;12.49;53.49;99437.97;4786223;28;104095;-78
2020/12/18 06:06:44;;;;;;;;;4.00;3.50;;;;;12.49;52.95;99437.13;4788513;28;104698;-78
2020/12/18 06:09:11;;;;;;;;;3.25;3.00;;;;;12.47;52.73;99437.31;4805079;28;102797;-78
2020/12/18 06:11:38;;;;;;;;;4.00;3.50;;;;;12.47;53.34;99440.03;4789812;28;106021;-78
2020/12/18 06:14:07;;;;;;;;;5.00;4.00;;;;;12.48;53.72;99443.59;4790625;29;103818;-78
2020/12/18 06:16:36;;;;;;;;;4.00;4.00;;;;;12.47;53.20;99452.78;4786449;29;103794;-78
2020/12/18 06:19:05;;;;;;;;;4.00;3.00;;;;;12.46;53.48;99446.50;4791024;28;104455;-78
2020/12/18 06:21:32;;;;;;;;;4.75;3.50;;;;;12.46;53.37;99451.09;4792694;29;103699;-78
2020/12/18 06:23:59;;;;;;;;;4.25;3.00;;;;;12.46;52.93;99451.09;4803455;28;104072;-78
2020/12/18 06:26:26;;;;;;;;;5.00;4.50;;;;;12.44;53.38;99448.56;4790183;29;103445;-78
2020/12/18 06:28:53;;;;;;;;;5.00;4.00;;;;;12.45;53.03;99443.97;4797321;29;102305;-78
2020/12/18 06:31:26;;;;;;;;;4.75;3.00;;;;;12.45;53.17;99455.66;4793434;28;108633;-78
2020/12/18 06:33:54;;;;;;;;;2.50;2.50;;;;;12.43;52.84;99457.72;4789491;28;109723;-78
2020/12/18 06:36:46;;;;;;;;;3.75;3.00;;;;;12.44;53.30;99466.69;4793831;28;102285;-78
2020/12/18 06:39:20;;;;;;;;;3.25;2.75;;;;;12.45;53.49;99466.53;4735842;28;103181;-78
2020/12/18 06:41:47;;;;;;;;;5.25;4.00;;;;;12.46;53.81;99479.06;4791564;28;102207;-79
2020/12/18 06:44:36;;;;;;;;;2.75;2.75;;;;;12.47;53.47;99466.34;4785457;28;104052;-78
2020/12/18 06:47:07;;;;;;;;;3.00;2.00;;;;;12.46;53.20;99478.22;4788294;29;102225;-78
2020/12/18 06:49:55;;;;;;;;;3.75;2.75;;;;;12.44;53.30;99472.97;4783702;29;103509;-78
2020/12/18 06:52:49;;;;;;;;;3.00;3.00;;;;;12.43;53.45;99474.00;4790247;28;103583;-78
2020/12/18 06:55:30;;;;;;;;;5.00;3.75;;;;;12.43;53.53;99478.56;4734157;28;109762;-78
2020/12/18 06:58:08;;;;;;;;;5.00;4.00;;;;;12.42;53.15;99476.91;4786996;29;103752;-78
2020/12/18 07:00:41;;;;;;;;;2.50;2.50;;;;;12.42;53.08;99491.31;4736597;28;102776;-78
2020/12/18 07:03:09;;;;;;;;;2.75;2.00;;;;;12.42;52.90;99488.63;4784653;28;102633;-78
2020/12/18 07:05:44;;;;;;;;;4.00;3.00;;;;;12.41;53.33;99481.50;4791493;28;104077;-78
2020/12/18 07:08:12;;;;;;;;;3.75;3.00;;;;;12.41;52.87;99494.22;4796127;29;102209;-78
2020/12/18 07:10:40;;;;;;;;;4.00;3.50;;;;;12.40;53.54;99490.66;4797319;28;102439;-78
2020/12/18 07:13:12;;;;;;;;;4.75;3.50;;;;;12.40;52.91;99489.81;4793349;28;102576;-78
2020/12/18 07:15:45;;;;;;;;;3.00;2.25;;;;;12.39;52.73;99494.41;4795015;28;104111;-78
2020/12/18 07:18:23;;;;;;;;;5.00;3.50;;;;;12.40;52.85;99496.09;4795673;28;102475;-78
2020/12/18 07:20:51;;;;;;;;;2.25;2.00;;;;;12.38;52.64;99491.91;4795088;28;102467;-78
2020/12/18 07:23:18;;;;;;;;;3.75;3.75;;;;;12.38;53.42;99498.13;4786943;28;102601;-78
2020/12/18 07:25:45;;;;;;;;;2.50;2.50;;;;;12.38;52.71;99506.28;4789573;29;104139;-78
2020/12/18 07:28:11;;;;;;;;;4.00;3.50;;;;;12.36;53.34;99497.50;4794849;29;102244;-78
2020/12/18 07:30:42;;;;;;;;;4.25;2.75;;;;;12.36;52.79;99497.50;4791322;29;102316;-78
2020/12/18 07:33:10;;;;;;;;;2.00;2.00;;;;;12.35;53.62;99501.25;4791056;28;102624;-78
2020/12/18 07:35:41;;;;;;;;;2.00;2.00;;;;;12.36;53.30;99511.06;4796002;29;103823;-78
2020/12/18 07:38:23;;;;;;;;;2.75;2.75;;;;;12.35;52.97;99500.38;4792098;29;102488;-78
2020/12/18 07:40:54;;;;;;;;;3.75;2.00;;;;;12.35;53.16;99503.94;4805654;28;102541;-78
2020/12/18 07:43:22;;;;;;;;;2.00;2.00;;;;;12.37;53.10;99501.06;4789301;28;102355;-78
2020/12/18 07:45:54;;;;;;;;;2.50;2.50;;;;;12.36;52.68;99508.34;4792531;29;104052;-78
2020/12/18 07:48:26;;;;;;;;;2.50;2.50;;;;;12.35;52.93;99509.38;4788789;29;102163;-78
2020/12/18 07:50:54;;;;;;;;;3.75;2.00;;;;;12.34;53.08;99507.69;4802468;28;102529;-78
2020/12/18 07:53:21;;;;;;;;;4.00;2.50;;;;;12.34;52.98;99513.09;4797528;29;102518;-78
2020/12/18 07:56:01;;;;;;;;;2.25;2.00;;;;;12.34;52.69;99504.97;4790752;29;104063;-78
2020/12/18 07:58:28;;;;;;;;;3.00;2.00;;;;;12.33;52.94;99516.88;4786035;29;102363;-79
2020/12/18 08:01:11;;;;;;;;;3.50;2.25;;;;;12.33;52.83;99511.44;4790161;28;107658;-79
2020/12/18 08:03:42;;;;;;;;;3.25;3.25;;;;;12.33;53.14;99516.03;4678609;29;102372;-78
2020/12/18 08:06:14;;;;;;;;;2.00;2.00;;;;;12.34;52.98;99513.09;4790503;28;104192;-78
2020/12/18 08:08:41;;;;;;;;;4.25;3.50;;;;;12.32;52.83;99508.91;4792326;28;102535;-78
2020/12/18 08:11:17;;;;;;;;;3.25;2.75;;;;;12.32;53.21;99515.19;4810480;28;103190;-78
2020/12/18 08:13:44;;;;;;;;;4.00;3.25;;;;;12.33;53.27;99518.75;4790412;29;102506;-78
2020/12/18 08:16:20;;;;;;;;;2.00;2.00;;;;;12.33;52.60;99514.16;4783688;29;104037;-78
2020/12/18 08:18:59;;;;;;;;;2.00;2.00;;;;;12.32;52.91;99519.78;4794522;28;103699;-78
2020/12/18 08:21:30;;;;;;;;;4.00;3.00;;;;;12.32;53.25;99514.34;4789035;29;102458;-78
2020/12/18 08:24:18;;;;;;;;;4.00;4.00;;;;;12.30;53.56;99514.53;4791511;28;103283;-78
2020/12/18 08:27:04;;;;;;;;;2.75;2.75;;;;;12.31;53.46;99528.94;4736268;28;108982;-78
2020/12/18 08:29:34;;;;;;;;;2.25;2.25;;;;;12.30;53.12;99532.66;4792340;29;102147;-78
2020/12/18 08:32:01;;;;;;;;;4.00;4.00;;;;;12.30;53.30;99528.09;4805011;28;102912;-78
2020/12/18 08:34:32;;;;;;;;;3.00;2.25;;;;;12.30;52.73;99527.25;4796480;28;102681;-78
2020/12/18 08:36:59;;;;;;;;;2.00;2.00;;;;;12.30;52.60;99538.94;4787146;29;108390;-78
2020/12/18 08:39:29;;;;;;;;;3.50;3.00;;;;;12.30;53.02;99538.94;4792184;29;102414;-78
2020/12/18 08:41:56;;;;;;;;;4.25;4.00;;;;;12.30;52.41;99536.22;4793147;29;103957;-78
2020/12/18 08:44:35;;;;;;;;;3.75;3.75;;;;;12.28;53.16;99541.00;4787484;28;102711;-79
2020/12/18 08:47:02;;;;;;;;;3.00;2.00;;;;;12.29;53.37;99541.84;4782724;29;108848;-79
2020/12/18 08:49:29;;;;;;;;;5.00;3.00;;;;;12.27;52.89;99539.31;4795530;29;102275;-79
2020/12/18 08:51:56;;;;;;;;;3.00;3.00;;;;;12.28;52.65;99538.28;4795501;28;102647;-79
2020/12/18 08:54:34;;;;;;;;;4.00;4.00;;;;;12.29;52.87;99539.94;4794472;28;102296;-79
2020/12/18 08:57:26;;;;;;;;;3.00;3.00;;;;;12.29;52.41;99547.28;4788036;29;108352;-79
2020/12/18 09:00:09;;;;;;;;;5.75;3.50;;;;;12.29;52.73;99550.00;4759336;29;102673;-78
2020/12/18 09:02:42;;;;;;;;;3.25;3.00;;;;;12.28;53.17;99557.28;4734091;29;102726;-78
2020/12/18 09:05:24;;;;;;;;;5.00;3.00;;;;;12.28;52.68;99542.88;4788110;28;102999;-78
2020/12/18 09:07:52;;;;;;;;;4.25;4.25;;;;;12.28;52.86;99554.56;4793505;29;104352;-78
2020/12/18 09:10:32;;;;;;;;;4.00;3.25;;;;;12.29;52.69;99548.09;4789704;28;102489;-78
2020/12/18 09:13:28;;;;;;;;;4.00;4.00;;;;;12.28;52.37;99551.84;4794371;29;102272;-78
2020/12/18 09:16:00;;;;;;;;;3.00;3.00;;;;;12.28;52.83;99556.44;4739140;28;102473;-78
2020/12/18 09:18:37;;;;;;;;;3.25;3.00;;;;;12.26;52.43;99558.47;4788133;29;108046;-78
2020/12/18 09:21:10;;;;;;;;;4.00;3.25;;;;;12.27;52.79;99550.16;4788946;29;102609;-78
2020/12/18 09:23:41;;;;;;;;;6.00;3.00;;;;;12.27;52.87;99561.00;4795725;29;102185;-78
2020/12/18 09:26:28;;;;;;;;;3.75;3.75;;;;;12.26;52.88;99553.91;4789796;28;105617;-78
2020/12/18 09:28:57;;;;;;;;;3.00;2.50;;;;;12.25;52.61;99549.50;4792556;29;108274;-78
2020/12/18 09:31:24;;;;;;;;;4.50;4.00;;;;;12.27;52.78;99558.31;4797498;28;102202;-79
2020/12/18 09:33:51;;;;;;;;;4.50;3.00;;;;;12.27;52.46;99558.31;4792220;28;102449;-78
2020/12/18 09:36:21;;;;;;;;;4.25;3.00;;;;;12.26;53.23;99553.91;4785750;29;102515;-78
2020/12/18 09:38:51;;;;;;;;;3.25;3.00;;;;;12.29;53.46;99555.41;4801206;28;103347;-78
2020/12/18 09:41:19;;;;;;;;;3.00;3.00;;;;;12.28;53.27;99554.56;4795407;29;102744;-78
2020/12/18 09:43:46;;;;;;;;;3.00;3.00;;;;;12.28;52.85;99549.13;4792137;28;104462;-78
2020/12/18 09:46:13;;;;;;;;;4.50;4.00;;;;;12.28;52.50;99551.84;4792239;29;102372;-78
2020/12/18 09:48:41;;;;;;;;;2.00;2.00;;;;;12.28;52.57;99546.44;4794716;29;104039;-78
2020/12/18 09:51:08;;;;;;;;;6.25;3.00;;;;;12.29;53.19;99553.50;4792767;28;102607;-78
2020/12/18 09:53:35;;;;;;;;;5.00;4.00;;;;;12.28;52.23;99554.56;4791084;28;102569;-78
2020/12/18 09:56:01;;;;;;;;;4.75;3.00;;;;;12.28;53.31;99554.56;4795348;29;102628;-78
2020/12/18 09:58:28;;;;;;;;;3.00;3.00;;;;;12.29;52.73;99547.28;4795253;28;105307;-78
2020/12/18 10:00:55;;;;;;;;;3.00;3.00;;;;;12.29;52.74;99550.81;4793103;28;102564;-78
2020/12/18 10:03:22;;;;;;;;;4.25;3.00;;;;;12.29;52.88;99552.69;4791360;29;102341;-78
2020/12/18 10:05:48;;;;;;;;;5.25;3.00;;;;;12.30;52.52;99551.66;4799912;29;102420;-78
2020/12/18 10:08:15;;;;;;;;;3.00;3.00;;;;;12.29;52.36;99550.81;4792823;28;103967;-78
2020/12/18 10:10:42;;;;;;;;;4.75;3.00;;;;;12.29;52.75;99556.22;4791396;29;102675;-78
2020/12/18 10:13:09;;;;;;;;;4.00;3.50;;;;;12.30;53.05;99555.19;4793965;28;103231;-78
2020/12/18 10:15:36;;;;;;;;;3.00;2.75;;;;;12.30;52.44;99548.94;4793893;28;102494;-79
2020/12/18 10:18:02;;;;;;;;;4.00;3.00;;;;;12.30;52.97;99554.34;4790181;29;104067;-78
2020/12/18 10:20:29;;;;;;;;;3.00;2.00;;;;;12.31;53.05;99561.47;4800230;29;102378;-78
2020/12/18 10:22:56;;;;;;;;;3.25;3.25;;;;;12.30;52.54;99557.91;4796987;29;102466;-78
2020/12/18 10:25:22;;;;;;;;;4.00;3.50;;;;;12.30;52.61;99560.63;4789254;29;102338;-78
2020/12/18 10:28:24;;;;;;;;;4.25;4.00;;;;;12.30;52.57;99548.94;4793243;29;104070;-79
2020/12/18 10:30:53;;;;;;;;;3.75;3.25;;;;;12.30;52.55;99555.19;4736015;29;102727;-78
2020/12/18 10:33:20;;;;;;;;;4.75;4.75;;;;;12.29;52.35;99542.66;4793747;29;102397;-78
2020/12/18 10:35:47;;;;;;;;;4.25;3.75;;;;;12.30;52.86;99544.34;4790343;28;102416;-78
2020/12/18 10:38:14;;;;;;;;;4.50;3.00;;;;;12.29;52.53;99548.09;4790882;29;104047;-78
2020/12/18 10:40:41;;;;;;;;;2.50;2.50;;;;;12.31;52.87;99551.47;4797143;28;109358;-78
2020/12/18 10:43:12;;;;;;;;;5.00;5.00;;;;;12.30;52.66;99544.34;4803365;28;102296;-78
2020/12/18 10:45:39;;;;;;;;;5.00;4.00;;;;;12.30;52.71;99555.19;4793227;29;103015;-78
2020/12/18 10:48:06;;;;;;;;;3.75;3.75;;;;;12.31;52.52;99546.03;4796048;29;104036;-78
2020/12/18 10:50:33;;;;;;;;;5.00;4.00;;;;;12.32;53.26;99550.44;4790547;28;102623;-78
2020/12/18 10:53:00;;;;;;;;;6.75;4.75;;;;;12.33;52.74;99554.84;4796358;29;102546;-78
2020/12/18 10:55:27;;;;;;;;;3.00;2.75;;;;;12.32;52.66;99550.44;4796170;29;102176;-78
2020/12/18 10:57:54;;;;;;;;;3.50;3.00;;;;;12.33;52.73;99544.00;4795300;28;104098;-78
2020/12/18 11:00:21;;;;;;;;;5.00;5.00;;;;;12.34;52.94;99552.94;4788877;28;103450;-78
2020/12/18 11:02:48;;;;;;;;;4.25;4.00;;;;;12.35;52.84;99552.75;4802632;29;102173;-78
2020/12/18 11:05:15;;;;;;;;;3.75;3.00;;;;;12.35;52.88;99552.75;4721524;28;102600;-78
2020/12/18 11:07:48;;;;;;;;;4.75;4.00;;;;;12.36;52.49;99554.47;4779406;29;108367;-78
2020/12/18 11:10:14;;;;;;;;;6.00;5.00;;;;;12.35;53.12;99550.06;4783713;29;102395;-78
2020/12/18 11:12:41;;;;;;;;;5.00;4.00;;;;;12.36;52.60;99543.59;4796752;29;102310;-77
2020/12/18 11:15:08;;;;;;;;;4.25;3.00;;;;;12.36;52.35;99551.75;4789849;28;103157;-78
2020/12/18 11:17:35;;;;;;;;;5.00;4.75;;;;;12.37;52.29;99555.31;4793226;28;103824;-78
2020/12/18 11:20:01;;;;;;;;;5.00;3.00;;;;;12.37;52.33;99549.88;4798673;29;102623;-78
2020/12/18 11:22:28;;;;;;;;;4.00;3.00;;;;;12.37;52.70;99545.28;4791048;29;102960;-79
2020/12/18 11:24:55;;;;;;;;;4.25;3.75;;;;;12.37;52.48;99548.00;4796025;28;102114;-78
2020/12/18 11:27:23;;;;;;;;;4.50;4.00;;;;;12.38;52.28;99555.09;4796614;28;104251;-78
2020/12/18 11:29:50;;;;;;;;;5.25;4.50;;;;;12.39;52.27;99550.50;4798542;29;102633;-78
2020/12/18 11:32:20;;;;;;;;;5.50;4.00;;;;;12.38;52.98;99548.84;4794007;28;102151;-78
2020/12/18 11:34:47;;;;;;;;;6.00;4.00;;;;;12.39;52.22;99547.78;4796599;28;104110;-78